Terminal Aerodrome Forecast
Issued by NWS

Current Version | Previous Version | Text Only | Print | Product List | Glossary On
Versions: 1 2 3 4 5 6 7 8 9 10 11 12 13 14 15 16 17 18 19 20 21 22 23 24 25 26 27 28 29 30 31
000 FTUS41 KBOX 020540 TAFBED TAF KBED 020540Z 0206/0306 22004KT 3SM -SN OVC015 TEMPO 0206/0207 2SM -SN FM020730 23004KT P6SM OVC045 FM021300 27008KT P6SM BKN050 FM021500 29013G28KT P6SM BKN045 FM021800 29016G31KT P6SM SCT040 FM022300 30012G23KT P6SM SCT045 FM030100 30010KT P6SM SCT250=

USA.gov is the U.S. government's official web portal to all federal, state and local government web resources and services.